Time;durP1;ratioP1;P1;durP2;ratioP2;P2;SDS_P1;SDS_P2;PMS_P1;PMS_P2;Temp;Humidity;BMP_temperature;BMP_pressure;BME280_temperature;BME280_humidity;BME280_pressure;Samples;Min_cycle;Max_cycle;Signal;HPM_P1;HPM_P2
2021/03/11 00:00:23;;;;;;;;;;;;;;;6.32;89.59;97921.88;5047604;28;19912;-80
2021/03/11 00:02:48;;;;;;;;;;;;;;;6.26;88.96;97928.00;5033330;28;19924;-79
2021/03/11 00:05:14;;;;;;;;;;;;;;;6.20;89.25;97935.88;5032537;28;19921;-80
2021/03/11 00:07:40;;;;;;;;;;;;;;;6.27;89.14;97918.59;5048517;28;19920;-79
2021/03/11 00:10:10;;;;;;;;;;;;;;;6.23;89.32;97924.72;5044263;28;19927;-78
2021/03/11 00:12:35;;;;;;;;;;;;;;;6.29;89.45;97911.72;5047479;28;19943;-80
2021/03/11 00:15:01;;;;;;;;;;;;;;;6.28;89.28;97892.16;5015302;28;20374;-78
2021/03/11 00:17:26;;;;;;;;;;;;;;;6.33;89.58;97871.56;5033351;28;20626;-78
2021/03/11 00:19:52;;;;;;;;;;;;;;;6.52;89.02;97882.81;5050071;28;19920;-80
2021/03/11 00:22:17;;;;;;;;;;;;;;;6.22;90.68;97872.72;5026338;28;20071;-79
2021/03/11 00:24:43;;;;;;;;;;;;;;;6.15;91.43;97863.59;4996049;28;19918;-80
2021/03/11 00:27:08;;;;;;;;;;;;;;;6.22;90.97;97867.63;5007142;28;19964;-80
2021/03/11 00:29:33;;;;;;;;;;;;;;;6.03;92.49;97874.22;5006731;28;20279;-81
2021/03/11 00:31:59;;;;;;;;;;;;;;;6.12;93.10;97856.03;4997455;28;19979;-79
2021/03/11 00:34:25;;;;;;;;;;;;;;;5.98;93.79;97837.75;4998006;28;19920;-80
2021/03/11 00:36:51;;;;;;;;;;;;;;;5.91;93.94;97843.88;4996859;28;19913;-81
2021/03/11 00:39:17;;;;;;;;;;;;;;;6.07;93.10;97832.34;5005510;28;20011;-81
2021/03/11 00:41:42;;;;;;;;;;;;;;;6.07;93.48;97824.69;4995792;28;19917;-81
2021/03/11 00:44:07;;;;;;;;;;;;;;;6.09;93.40;97828.03;5013815;28;20000;-80
2021/03/11 00:46:33;;;;;;;;;;;;;;;6.06;93.76;97828.09;5005700;28;19971;-81
2021/03/11 00:48:58;;;;;;;;;;;;;;;6.27;92.91;97824.84;5030187;28;19952;-79
2021/03/11 00:51:23;;;;;;;;;;;;;;;6.19;92.64;97829.38;5029214;28;19913;-80
2021/03/11 00:53:49;;;;;;;;;;;;;;;6.25;92.00;97831.75;5011591;28;19929;-79
2021/03/11 00:56:14;;;;;;;;;;;;;;;6.31;91.23;97817.91;5004745;28;19928;-79
2021/03/11 00:58:39;;;;;;;;;;;;;;;6.39;91.13;97830.44;4996227;28;19959;-79
2021/03/11 01:01:05;;;;;;;;;;;;;;;6.23;91.71;97830.94;4996860;28;19925;-79
2021/03/11 01:03:30;;;;;;;;;;;;;;;6.31;91.23;97822.19;4989152;28;19921;-80
2021/03/11 01:05:56;;;;;;;;;;;;;;;6.25;91.81;97803.63;5025199;28;19921;-80
2021/03/11 01:08:21;;;;;;;;;;;;;;;6.27;91.44;97794.19;5012061;28;19983;-79
2021/03/11 01:10:47;;;;;;;;;;;;;;;6.27;91.41;97801.84;5012151;28;19974;-79
2021/03/11 01:13:12;;;;;;;;;;;;;;;6.35;91.01;97804.13;5014755;28;19923;-79
2021/03/11 01:15:41;;;;;;;;;;;;;;;6.28;91.44;97792.44;5011257;28;19991;-79
2021/03/11 01:18:06;;;;;;;;;;;;;;;6.39;90.87;97797.19;5013620;28;20822;-79
2021/03/11 01:20:32;;;;;;;;;;;;;;;6.25;91.09;97782.34;5013104;28;20096;-80
2021/03/11 01:22:57;;;;;;;;;;;;;;;6.37;91.07;97781.91;5011901;28;19925;-80
2021/03/11 01:25:23;;;;;;;;;;;;;;;6.30;91.07;97759.16;4996143;28;19917;-79
2021/03/11 01:27:48;;;;;;;;;;;;;;;6.37;91.19;97770.84;5003645;28;19917;-79
2021/03/11 01:30:14;;;;;;;;;;;;;;;6.26;91.23;97738.81;4998926;28;19928;-78
2021/03/11 01:32:39;;;;;;;;;;;;;;;6.17;91.94;97749.34;5024953;28;20440;-79
2021/03/11 01:35:05;;;;;;;;;;;;;;;6.25;91.49;97729.47;4982806;28;20818;-79
2021/03/11 01:37:30;;;;;;;;;;;;;;;6.15;91.59;97720.44;5025991;28;19944;-81
2021/03/11 01:39:55;;;;;;;;;;;;;;;6.20;91.84;97731.38;5008843;28;19971;-79
2021/03/11 01:42:21;;;;;;;;;;;;;;;6.24;91.34;97698.84;5025705;28;19917;-80
2021/03/11 01:44:46;;;;;;;;;;;;;;;6.28;91.48;97698.69;5006274;28;19978;-79
2021/03/11 01:47:12;;;;;;;;;;;;;;;6.20;91.83;97698.13;4983370;28;19948;-79
2021/03/11 01:49:37;;;;;;;;;;;;;;;6.28;91.53;97693.56;5008205;28;19967;-79
2021/03/11 01:52:03;;;;;;;;;;;;;;;6.31;91.23;97697.72;5023714;28;19921;-79
2021/03/11 01:54:29;;;;;;;;;;;;;;;6.33;91.24;97687.47;5025125;28;19967;-78
2021/03/11 01:56:54;;;;;;;;;;;;;;;6.49;90.84;97688.56;4981001;28;19916;-78
2021/03/11 01:59:20;;;;;;;;;;;;;;;6.35;91.22;97671.16;4998513;28;19967;-79
2021/03/11 02:01:45;;;;;;;;;;;;;;;6.28;91.34;97657.78;4997335;28;19921;-79
2021/03/11 02:04:10;;;;;;;;;;;;;;;6.40;91.23;97674.38;4977898;28;19906;-79
2021/03/11 02:06:36;;;;;;;;;;;;;;;6.30;91.26;97659.47;4979976;28;19948;-77
2021/03/11 02:09:04;;;;;;;;;;;;;;;6.35;91.19;97644.78;4993845;28;19917;-79
2021/03/11 02:11:29;;;;;;;;;;;;;;;6.46;91.31;97655.44;5024040;28;19923;-78
2021/03/11 02:14:14;;;;;;;;;;;;;;;6.34;90.77;97645.66;4979685;28;19921;-79
2021/03/11 02:16:45;;;;;;;;;;;;;;;6.16;92.06;97608.81;5025010;28;19976;-79
2021/03/11 02:19:17;;;;;;;;;;;;;;;6.23;91.46;97623.88;4998770;28;19917;-78
2021/03/11 02:21:47;;;;;;;;;;;;;;;6.35;91.29;97655.00;5025908;28;19920;-78
2021/03/11 02:24:31;;;;;;;;;;;;;;;6.40;91.13;97630.91;5034882;28;19969;-79
2021/03/11 02:27:15;;;;;;;;;;;;;;;6.35;91.02;97616.66;5048739;28;19967;-79
2021/03/11 02:29:41;;;;;;;;;;;;;;;6.30;91.43;97616.00;5052955;28;19925;-79
2021/03/11 02:32:07;;;;;;;;;;;;;;;6.39;91.71;97641.22;5028560;28;19920;-78
2021/03/11 02:34:33;;;;;;;;;;;;;;;6.48;90.82;97635.75;5031307;28;19924;-79
2021/03/11 02:37:01;;;;;;;;;;;;;;;6.43;90.90;97627.41;5036264;28;19943;-80
2021/03/11 02:39:27;;;;;;;;;;;;;;;6.33;92.07;97624.38;5051582;28;19931;-81
2021/03/11 02:41:53;;;;;;;;;;;;;;;6.23;92.02;97600.06;5052600;28;19935;-80
2021/03/11 02:44:19;;;;;;;;;;;;;;;6.37;92.48;97591.88;5052850;28;19958;-77
2021/03/11 02:46:45;;;;;;;;;;;;;;;6.33;91.95;97606.47;5033540;28;19924;-80
2021/03/11 02:49:10;;;;;;;;;;;;;;;6.42;92.10;97610.41;5053604;28;20370;-81
2021/03/11 02:51:35;;;;;;;;;;;;;;;6.33;92.65;97574.97;5051903;28;19931;-79
2021/03/11 02:54:01;;;;;;;;;;;;;;;6.42;92.15;97579.72;5051211;28;20014;-80
2021/03/11 02:56:26;;;;;;;;;;;;;;;6.46;92.09;97577.00;5050576;28;19925;-79
2021/03/11 02:58:52;;;;;;;;;;;;;;;6.38;92.07;97578.16;5051945;28;19963;-80
2021/03/11 03:01:18;;;;;;;;;;;;;;;6.38;92.22;97562.81;5050600;28;20286;-80
2021/03/11 03:03:43;;;;;;;;;;;;;;;6.48;92.23;97559.03;5052806;28;19920;-79
2021/03/11 03:06:09;;;;;;;;;;;;;;;6.45;91.91;97549.78;5034018;28;19916;-77
2021/03/11 03:08:35;;;;;;;;;;;;;;;6.49;92.17;97537.69;5033335;28;19969;-80
2021/03/11 03:11:00;;;;;;;;;;;;;;;6.48;92.52;97524.06;5051445;28;19920;-80
2021/03/11 03:13:25;;;;;;;;;;;;;;;6.51;91.93;97524.84;5034040;28;19947;-78
2021/03/11 03:15:51;;;;;;;;;;;;;;;6.38;92.58;97507.41;5051378;28;19913;-79
2021/03/11 03:18:17;;;;;;;;;;;;;;;6.64;91.72;97482.53;5050127;28;19920;-80
2021/03/11 03:20:43;;;;;;;;;;;;;;;6.52;92.19;97481.28;5028433;28;20007;-80
2021/03/11 03:23:08;;;;;;;;;;;;;;;6.57;92.28;97464.06;5008040;28;20019;-78
2021/03/11 03:25:34;;;;;;;;;;;;;;;6.55;92.21;97473.50;5012866;28;19927;-78
2021/03/11 03:27:59;;;;;;;;;;;;;;;6.50;92.74;97480.53;5013589;28;19928;-80
2021/03/11 03:30:25;;;;;;;;;;;;;;;6.65;92.06;97477.34;5026386;28;19920;-77
2021/03/11 03:32:50;;;;;;;;;;;;;;;6.72;91.95;97488.16;4995702;28;20447;-80
2021/03/11 03:35:17;;;;;;;;;;;;;;;6.55;92.01;97468.41;5011438;28;19927;-80
2021/03/11 03:37:43;;;;;;;;;;;;;;;6.54;93.08;97466.72;4996774;28;20011;-79
2021/03/11 03:40:09;;;;;;;;;;;;;;;6.52;92.87;97445.47;5030487;28;20003;-79
2021/03/11 03:42:36;;;;;;;;;;;;;;;6.69;91.54;97435.41;5028059;28;20439;-78
2021/03/11 03:45:02;;;;;;;;;;;;;;;6.73;92.13;97431.00;5028994;28;19920;-78
2021/03/11 03:47:28;;;;;;;;;;;;;;;6.58;92.35;97412.00;5043275;28;19927;-78
2021/03/11 03:49:53;;;;;;;;;;;;;;;6.52;92.40;97416.53;5011610;28;19917;-77
2021/03/11 03:52:18;;;;;;;;;;;;;;;6.55;92.49;97424.09;5027759;28;19929;-78
2021/03/11 03:54:44;;;;;;;;;;;;;;;6.56;92.46;97434.25;5012082;28;19923;-80
2021/03/11 03:57:15;;;;;;;;;;;;;;;6.66;91.99;97444.91;5011162;28;19950;-78
2021/03/11 03:59:41;;;;;;;;;;;;;;;6.72;92.02;97443.84;5012538;28;20532;-77
2021/03/11 04:02:06;;;;;;;;;;;;;;;6.67;92.25;97447.41;5008942;28;19917;-79
2021/03/11 04:04:33;;;;;;;;;;;;;;;6.69;92.57;97440.50;5011846;28;19920;-78
2021/03/11 04:06:59;;;;;;;;;;;;;;;6.80;92.04;97446.94;5013255;28;19974;-79
2021/03/11 04:09:25;;;;;;;;;;;;;;;6.73;91.45;97456.59;4994730;28;19916;-77
2021/03/11 04:11:50;;;;;;;;;;;;;;;6.80;91.88;97441.81;4996133;28;20412;-77
2021/03/11 04:14:16;;;;;;;;;;;;;;;6.83;91.78;97439.94;5028023;28;19931;-80
2021/03/11 04:16:42;;;;;;;;;;;;;;;6.85;91.60;97455.25;5013310;28;20439;-79
2021/03/11 04:19:07;;;;;;;;;;;;;;;6.89;91.68;97443.97;4996101;28;19921;-78
2021/03/11 04:21:33;;;;;;;;;;;;;;;7.05;90.68;97445.00;4997730;28;19917;-80
2021/03/11 04:23:58;;;;;;;;;;;;;;;6.91;91.80;97429.38;5053656;28;19947;-78
2021/03/11 04:26:24;;;;;;;;;;;;;;;6.78;92.44;97435.94;5053544;28;19920;-78
2021/03/11 04:28:51;;;;;;;;;;;;;;;6.79;92.63;97407.69;5037739;28;19920;-77
2021/03/11 04:31:16;;;;;;;;;;;;;;;6.86;92.57;97392.91;5053453;28;19920;-79
2021/03/11 04:33:42;;;;;;;;;;;;;;;6.82;92.55;97407.59;5023181;28;19924;-80
2021/03/11 04:36:07;;;;;;;;;;;;;;;6.79;92.53;97406.88;5001141;28;19917;-78
2021/03/11 04:38:33;;;;;;;;;;;;;;;6.91;92.14;97404.63;5052368;28;20503;-79
2021/03/11 04:40:58;;;;;;;;;;;;;;;6.69;93.24;97399.59;5036373;28;19921;-79
2021/03/11 04:43:24;;;;;;;;;;;;;;;6.49;93.86;97381.69;5051932;28;19920;-79
2021/03/11 04:45:49;;;;;;;;;;;;;;;6.57;93.23;97387.31;5036870;28;19921;-80
2021/03/11 04:48:15;;;;;;;;;;;;;;;6.78;91.98;97392.44;5027081;28;19963;-80
2021/03/11 04:50:41;;;;;;;;;;;;;;;6.67;92.87;97365.56;5053075;28;20784;-78
2021/03/11 04:53:06;;;;;;;;;;;;;;;6.63;93.38;97370.88;5033358;28;19925;-78
2021/03/11 04:55:32;;;;;;;;;;;;;;;6.64;92.90;97370.81;5034452;28;19965;-78
2021/03/11 04:57:58;;;;;;;;;;;;;;;6.85;93.01;97358.00;5052600;28;20019;-78
2021/03/11 05:00:23;;;;;;;;;;;;;;;6.79;92.92;97337.78;5019219;28;20007;-79
2021/03/11 05:02:49;;;;;;;;;;;;;;;6.90;92.35;97350.94;5049838;28;19931;-80
2021/03/11 05:05:14;;;;;;;;;;;;;;;6.87;93.28;97351.91;5033099;28;19925;-78
2021/03/11 05:07:39;;;;;;;;;;;;;;;6.76;94.34;97348.16;5035608;28;19920;-78
2021/03/11 05:10:05;;;;;;;;;;;;;;;6.79;93.65;97350.59;5051994;28;20344;-76
2021/03/11 05:12:30;;;;;;;;;;;;;;;6.86;93.88;97365.59;5036361;28;19970;-79
2021/03/11 05:14:56;;;;;;;;;;;;;;;6.96;93.36;97350.69;5055453;28;19936;-80
2021/03/11 05:17:21;;;;;;;;;;;;;;;7.01;93.64;97371.78;5053787;28;19920;-77
2021/03/11 05:19:46;;;;;;;;;;;;;;;6.88;94.66;97368.09;5052773;28;19920;-78
2021/03/11 05:22:12;;;;;;;;;;;;;;;6.93;93.99;97360.22;5053626;28;19948;-79
2021/03/11 05:24:37;;;;;;;;;;;;;;;7.02;94.22;97360.63;5050719;28;20529;-78
2021/03/11 05:27:03;;;;;;;;;;;;;;;7.02;93.85;97355.53;5035718;28;20711;-78
2021/03/11 05:29:28;;;;;;;;;;;;;;;7.01;94.65;97378.63;5032778;28;20719;-79
2021/03/11 05:31:53;;;;;;;;;;;;;;;6.86;96.28;97395.47;5035311;28;19924;-78
2021/03/11 05:34:19;;;;;;;;;;;;;;;7.00;94.31;97382.06;5052995;28;19955;-79
2021/03/11 05:36:44;;;;;;;;;;;;;;;7.06;94.16;97361.34;5050961;28;19920;-80
2021/03/11 05:39:10;;;;;;;;;;;;;;;6.95;94.68;97345.63;5050772;28;19921;-78
2021/03/11 05:41:36;;;;;;;;;;;;;;;7.12;94.46;97359.34;5035366;28;19924;-78
2021/03/11 05:44:01;;;;;;;;;;;;;;;7.09;94.71;97356.06;5018900;28;19978;-78
2021/03/11 05:46:26;;;;;;;;;;;;;;;7.17;94.20;97337.84;5017147;28;20290;-79
2021/03/11 05:48:54;;;;;;;;;;;;;;;7.18;94.60;97359.97;5032733;28;20312;-78
2021/03/11 05:51:19;;;;;;;;;;;;;;;7.17;95.36;97353.19;5033605;28;19925;-79
2021/03/11 05:53:44;;;;;;;;;;;;;;;7.30;94.65;97349.19;5044955;28;19932;-78
2021/03/11 05:56:09;;;;;;;;;;;;;;;7.29;94.85;97363.69;5012964;28;19958;-78
2021/03/11 05:58:35;;;;;;;;;;;;;;;7.28;96.33;97351.81;5030592;28;20019;-78
2021/03/11 06:01:01;;;;;;;;;;;;;;;7.23;96.01;97361.44;5048484;28;19920;-80
2021/03/11 06:03:27;;;;;;;;;;;;;;;7.20;96.86;97363.28;5030734;28;19925;-80
2021/03/11 06:05:53;;;;;;;;;;;;;;;7.24;96.91;97362.25;5049021;28;19944;-79
2021/03/11 06:08:21;;;;;;;;;;;;;;;7.30;96.53;97369.69;5048531;28;19923;-81
2021/03/11 06:10:47;;;;;;;;;;;;;;;7.29;95.86;97350.06;5023604;28;20424;-82
2021/03/11 06:13:12;;;;;;;;;;;;;;;7.20;97.56;97351.31;5033069;28;19932;-81
2021/03/11 06:15:38;;;;;;;;;;;;;;;7.20;97.34;97343.63;5050504;28;19939;-81
2021/03/11 06:18:07;;;;;;;;;;;;;;;7.27;97.05;97346.75;5038880;28;20374;-79
2021/03/11 06:20:32;;;;;;;;;;;;;;;7.25;97.47;97340.88;5022222;28;20302;-80
2021/03/11 06:22:57;;;;;;;;;;;;;;;7.16;97.91;97326.78;5028153;28;19925;-82
2021/03/11 06:25:23;;;;;;;;;;;;;;;7.22;97.83;97330.78;5022039;28;19943;-80
2021/03/11 06:27:48;;;;;;;;;;;;;;;7.24;97.76;97323.84;5035899;28;19917;-81
2021/03/11 06:30:28;;;;;;;;;;;;;;;7.31;97.50;97330.34;5028014;28;20011;-80
2021/03/11 06:32:54;;;;;;;;;;;;;;;7.25;97.39;97320.38;5037252;28;19929;-80
2021/03/11 06:35:19;;;;;;;;;;;;;;;7.13;98.73;97302.13;5034793;28;20841;-79
2021/03/11 06:37:47;;;;;;;;;;;;;;;7.12;98.69;97304.78;5037821;28;19912;-80
2021/03/11 06:40:14;;;;;;;;;;;;;;;7.15;97.83;97311.47;5045559;28;19968;-80
2021/03/11 06:42:40;;;;;;;;;;;;;;;7.33;98.08;97313.19;5032283;28;19916;-80
2021/03/11 06:45:23;;;;;;;;;;;;;;;7.12;98.54;97331.19;5051465;28;19924;-81
2021/03/11 06:47:49;;;;;;;;;;;;;;;7.33;98.25;97313.19;5030319;28;19923;-82
2021/03/11 06:50:14;;;;;;;;;;;;;;;7.25;97.44;97305.03;5037666;28;19916;-83
2021/03/11 06:52:40;;;;;;;;;;;;;;;7.17;98.36;97299.44;5053607;28;20262;-79
2021/03/11 06:55:07;;;;;;;;;;;;;;;7.30;97.42;97308.22;5035414;28;19968;-80
2021/03/11 06:57:33;;;;;;;;;;;;;;;7.19;98.98;97318.13;5028381;28;19916;-79
2021/03/11 07:00:00;;;;;;;;;;;;;;;7.31;97.47;97309.88;5053998;28;20019;-78
2021/03/11 07:02:27;;;;;;;;;;;;;;;7.26;97.33;97291.34;5020323;28;19920;-78
2021/03/11 07:04:53;;;;;;;;;;;;;;;7.34;97.89;97304.59;5035339;28;20516;-80
2021/03/11 07:07:22;;;;;;;;;;;;;;;7.19;98.13;97318.13;5034089;28;19924;-80
2021/03/11 07:09:48;;;;;;;;;;;;;;;7.25;97.88;97310.13;5034880;28;19913;-81
2021/03/11 07:12:14;;;;;;;;;;;;;;;7.33;97.90;97308.06;5035585;28;20385;-79
2021/03/11 07:14:39;;;;;;;;;;;;;;;7.31;97.62;97284.25;5035223;28;19916;-79
2021/03/11 07:17:20;;;;;;;;;;;;;;;7.31;97.39;97299.63;5051061;28;19913;-81
2021/03/11 07:20:04;;;;;;;;;;;;;;;7.26;98.14;97309.25;5055038;28;19913;-80
2021/03/11 07:22:29;;;;;;;;;;;;;;;7.39;97.19;97295.00;5054255;28;19921;-81
2021/03/11 07:24:55;;;;;;;;;;;;;;;7.45;96.86;97288.75;5050753;28;19923;-82
2021/03/11 07:27:20;;;;;;;;;;;;;;;7.49;96.36;97265.47;5025853;28;19924;-80
2021/03/11 07:29:59;;;;;;;;;;;;;;;7.36;98.05;97278.94;5007024;28;19949;-80
2021/03/11 07:32:24;;;;;;;;;;;;;;;7.34;97.63;97279.00;5016804;28;19920;-81
2021/03/11 07:34:50;;;;;;;;;;;;;;;7.37;98.44;97286.56;5051837;28;20624;-82
2021/03/11 07:37:15;;;;;;;;;;;;;;;7.49;96.81;97269.78;5048937;28;20505;-80
2021/03/11 07:39:42;;;;;;;;;;;;;;;7.46;97.33;97252.81;5018198;28;20380;-82
2021/03/11 07:42:08;;;;;;;;;;;;;;;7.46;96.08;97247.69;5012020;28;20002;-81
2021/03/11 07:44:34;;;;;;;;;;;;;;;7.61;97.03;97260.66;5035342;28;19982;-80
2021/03/11 07:46:59;;;;;;;;;;;;;;;7.45;96.56;97246.03;5052086;28;19923;-81
2021/03/11 07:49:28;;;;;;;;;;;;;;;7.48;96.89;97230.53;5035490;28;19916;-80
2021/03/11 07:51:53;;;;;;;;;;;;;;;7.59;97.55;97222.31;5054102;28;19921;-80
2021/03/11 07:54:20;;;;;;;;;;;;;;;7.59;96.45;97237.69;5019984;28;20444;-80
2021/03/11 07:56:46;;;;;;;;;;;;;;;7.72;97.35;97213.13;5032095;28;19927;-81
2021/03/11 07:59:11;;;;;;;;;;;;;;;7.81;97.38;97216.97;5035671;28;19921;-80
2021/03/11 08:01:44;;;;;;;;;;;;;;;7.72;97.37;97228.50;5052562;28;19962;-80
2021/03/11 08:04:09;;;;;;;;;;;;;;;7.83;97.95;97217.72;5005281;28;19920;-81
2021/03/11 08:06:35;;;;;;;;;;;;;;;7.85;97.99;97228.72;5028419;28;20709;-81
2021/03/11 08:09:00;;;;;;;;;;;;;;;7.84;98.38;97211.69;5014599;28;19917;-81
2021/03/11 08:11:38;;;;;;;;;;;;;;;7.84;97.66;97211.69;5001769;28;20493;-80
2021/03/11 08:14:19;;;;;;;;;;;;;;;7.88;98.93;97197.81;5027994;28;19999;-80
2021/03/11 08:16:45;;;;;;;;;;;;;;;7.97;97.61;97209.34;5050637;28;19916;-80
2021/03/11 08:19:10;;;;;;;;;;;;;;;7.88;97.57;97200.38;5016650;28;19923;-82
2021/03/11 08:21:35;;;;;;;;;;;;;;;7.96;97.85;97205.13;5034610;28;19975;-81
2021/03/11 08:24:01;;;;;;;;;;;;;;;7.94;98.51;97202.66;5050489;28;19916;-80
2021/03/11 08:26:53;;;;;;;;;;;;;;;8.18;98.45;97207.41;5016974;28;19928;-81
2021/03/11 08:29:18;;;;;;;;;;;;;;;8.69;96.61;97181.72;5022887;28;19916;-81
2021/03/11 08:31:44;;;;;;;;;;;;;;;8.53;96.66;97202.22;5049600;28;19917;-81
2021/03/11 08:34:23;;;;;;;;;;;;;;;8.60;96.23;97180.50;5016981;28;19920;-81
2021/03/11 08:36:48;;;;;;;;;;;;;;;9.16;95.38;97188.56;5035197;28;19917;-80
2021/03/11 08:39:29;;;;;;;;;;;;;;;9.06;95.18;97179.75;5052934;28;19920;-81
2021/03/11 08:41:54;;;;;;;;;;;;;;;9.30;94.32;97172.41;5033023;28;19939;-80
2021/03/11 08:44:40;;;;;;;;;;;;;;;9.37;93.13;97173.69;5015241;28;20441;-80
2021/03/11 08:47:08;;;;;;;;;;;;;;;9.78;93.13;97175.66;5049967;28;20626;-81
2021/03/11 08:49:43;;;;;;;;;;;;;;;9.49;93.21;97164.47;5044894;28;19917;-80
2021/03/11 08:52:29;;;;;;;;;;;;;;;9.39;93.99;97169.31;5037494;28;19966;-82
2021/03/11 08:54:54;;;;;;;;;;;;;;;9.27;93.75;97165.69;5029830;28;19955;-80
2021/03/11 08:57:41;;;;;;;;;;;;;;;9.13;93.71;97158.75;5051226;28;19920;-80
2021/03/11 09:00:07;;;;;;;;;;;;;;;9.13;93.57;97158.75;5033445;28;20578;-81
2021/03/11 09:02:33;;;;;;;;;;;;;;;9.28;92.65;97148.53;5049704;28;20034;-80
2021/03/11 09:04:58;;;;;;;;;;;;;;;9.52;93.39;97141.19;5046759;28;19917;-80
2021/03/11 09:07:28;;;;;;;;;;;;;;;9.30;93.72;97133.88;5029488;28;19955;-80
2021/03/11 09:09:54;;;;;;;;;;;;;;;9.41;93.92;97144.34;5032235;28;20374;-81
2021/03/11 09:12:24;;;;;;;;;;;;;;;9.46;92.57;97134.63;5050758;28;19941;-79
2021/03/11 09:14:51;;;;;;;;;;;;;;;9.51;92.44;97131.81;5048071;28;19925;-80
2021/03/11 09:17:20;;;;;;;;;;;;;;;9.91;91.55;97130.31;5031428;28;19932;-81
2021/03/11 09:19:47;;;;;;;;;;;;;;;9.73;91.61;97123.69;5015348;28;20014;-81
2021/03/11 09:22:19;;;;;;;;;;;;;;;9.77;92.72;97145.72;5010655;28;19925;-81
2021/03/11 09:24:56;;;;;;;;;;;;;;;9.89;91.73;97139.03;5033013;28;19980;-79
2021/03/11 09:27:22;;;;;;;;;;;;;;;9.77;91.98;97135.44;5048028;28;19917;-80
2021/03/11 09:29:48;;;;;;;;;;;;;;;9.73;92.47;97139.09;5033151;28;19913;-80
2021/03/11 09:32:15;;;;;;;;;;;;;;;9.45;93.26;97158.69;5033455;28;21932;-80
2021/03/11 09:34:56;;;;;;;;;;;;;;;9.42;92.34;97152.00;5049560;28;19988;-81
2021/03/11 09:37:41;;;;;;;;;;;;;;;9.46;93.39;97157.75;5030792;28;19956;-80
2021/03/11 09:40:06;;;;;;;;;;;;;;;9.32;94.46;97163.69;5031783;28;19921;-80
2021/03/11 09:42:32;;;;;;;;;;;;;;;9.15;95.52;97159.50;5034573;28;19916;-80
2021/03/11 09:44:57;;;;;;;;;;;;;;;9.17;96.01;97170.53;5049561;28;20009;-81
2021/03/11 09:47:28;;;;;;;;;;;;;;;9.07;98.12;97159.09;5032984;28;20043;-79
2021/03/11 09:50:14;;;;;;;;;;;;;;;9.14;98.30;97159.59;5048633;28;19925;-81
2021/03/11 09:52:58;;;;;;;;;;;;;;;9.26;97.54;97163.19;5055206;28;19978;-80
2021/03/11 09:55:23;;;;;;;;;;;;;;;9.01;98.53;97174.84;5036270;28;19955;-81
2021/03/11 09:57:49;;;;;;;;;;;;;;;8.91;100.00;97169.38;5026604;28;19955;-80
2021/03/11 10:00:14;;;;;;;;;;;;;;;8.46;100.00;97190.63;5037772;28;20648;-81
2021/03/11 10:02:47;;;;;;;;;;;;;;;8.46;100.00;97185.50;5034736;28;19971;-82
2021/03/11 10:05:12;;;;;;;;;;;;;;;8.56;100.00;97177.25;5035747;28;19921;-81
2021/03/11 10:07:37;;;;;;;;;;;;;;;8.44;100.00;97192.44;5021226;28;19921;-82
2021/03/11 10:10:03;;;;;;;;;;;;;;;8.73;100.00;97176.34;5033371;28;19971;-81
2021/03/11 10:12:38;;;;;;;;;;;;;;;8.26;81.54;97195.03;5019856;28;20282;-82
2021/03/11 10:15:07;;;;;;;;;;;;;;;8.44;100.00;97183.03;5054372;28;19994;-82
2021/03/11 10:17:33;;;;;;;;;;;;;;;8.57;100.00;97180.63;5051653;28;20349;-81
2021/03/11 10:19:58;;;;;;;;;;;;;;;8.51;97.79;97155.31;5035250;28;19967;-80
2021/03/11 10:22:25;;;;;;;;;;;;;;;8.49;97.98;97183.63;5052272;28;19924;-82
2021/03/11 10:24:51;;;;;;;;;;;;;;;8.56;97.80;97143.06;5032604;28;19925;-82
2021/03/11 10:27:24;;;;;;;;;;;;;;;8.68;96.37;97095.38;5051028;28;19917;-82
2021/03/11 10:30:01;;;;;;;;;;;;;;;8.64;96.38;97074.19;5014786;28;19969;-82
2021/03/11 10:32:27;;;;;;;;;;;;;;;8.57;95.62;97101.09;5025356;28;19982;-80
2021/03/11 10:34:52;;;;;;;;;;;;;;;8.88;94.68;97107.13;5034807;28;20313;-81
2021/03/11 10:37:37;;;;;;;;;;;;;;;8.98;94.71;97123.66;5025196;28;19916;-81
2021/03/11 10:40:06;;;;;;;;;;;;;;;9.40;93.25;97089.59;5050845;28;19920;-80
2021/03/11 10:42:42;;;;;;;;;;;;;;;10.07;91.60;97083.09;5016636;28;20014;-80
2021/03/11 10:45:08;;;;;;;;;;;;;;;10.16;91.40;97075.66;5033267;28;19920;-80
2021/03/11 10:47:33;;;;;;;;;;;;;;;10.34;89.87;97076.31;5030579;28;19917;-80
2021/03/11 10:49:58;;;;;;;;;;;;;;;10.53;87.55;97052.00;5031521;28;19958;-82
2021/03/11 10:52:24;;;;;;;;;;;;;;;10.25;85.27;97077.66;5017192;28;19916;-80
2021/03/11 10:54:49;;;;;;;;;;;;;;;10.71;86.74;97058.53;5050679;28;19920;-81
2021/03/11 10:57:17;;;;;;;;;;;;;;;10.73;84.12;97067.00;5016274;28;20904;-80
2021/03/11 10:59:48;;;;;;;;;;;;;;;10.97;85.38;97074.06;5024373;28;19935;-81
2021/03/11 11:02:14;;;;;;;;;;;;;;;10.57;82.69;97067.13;5021827;28;19921;-80
2021/03/11 11:04:40;;;;;;;;;;;;;;;10.68;81.75;97074.19;5035145;28;20062;-79
2021/03/11 11:07:06;;;;;;;;;;;;;;;10.78;83.89;97085.53;5048174;28;19963;-81
2021/03/11 11:09:31;;;;;;;;;;;;;;;10.53;84.08;97088.03;5014130;28;20629;-80
2021/03/11 11:11:56;;;;;;;;;;;;;;;10.74;83.31;97081.53;5028599;28;20860;-79
2021/03/11 11:14:22;;;;;;;;;;;;;;;10.99;83.77;97100.56;5012149;28;19959;-79
2021/03/11 11:16:47;;;;;;;;;;;;;;;10.75;83.49;97108.91;5043715;28;20283;-79
2021/03/11 11:19:13;;;;;;;;;;;;;;;10.99;80.24;97105.69;5030003;28;20016;-80
2021/03/11 11:21:39;;;;;;;;;;;;;;;11.07;81.15;97090.59;5012779;28;19952;-80
2021/03/11 11:24:05;;;;;;;;;;;;;;;10.93;80.22;97104.34;5049988;28;20015;-80
2021/03/11 11:26:30;;;;;;;;;;;;;;;11.13;78.99;97091.94;5024444;28;20090;-81
2021/03/11 11:28:56;;;;;;;;;;;;;;;11.50;80.95;97098.09;5031478;28;20238;-81
2021/03/11 11:31:21;;;;;;;;;;;;;;;11.26;80.09;97090.22;5030431;28;19912;-79
2021/03/11 11:33:46;;;;;;;;;;;;;;;11.57;80.66;97089.03;5031409;28;19921;-80
2021/03/11 11:36:12;;;;;;;;;;;;;;;11.80;80.92;97079.75;5046887;28;19928;-79
2021/03/11 11:38:37;;;;;;;;;;;;;;;11.97;78.56;97080.38;5023300;28;19938;-79
2021/03/11 11:41:03;;;;;;;;;;;;;;;11.86;79.93;97070.75;5018767;28;19920;-79
2021/03/11 11:43:28;;;;;;;;;;;;;;;12.11;79.18;97081.09;5013655;28;20310;-80
2021/03/11 11:45:53;;;;;;;;;;;;;;;12.29;74.02;97060.06;5046996;28;20726;-80
2021/03/11 11:48:19;;;;;;;;;;;;;;;12.05;74.57;97068.59;5029591;28;20442;-80
2021/03/11 11:50:44;;;;;;;;;;;;;;;12.06;76.16;97059.91;5028381;28;20437;-81
2021/03/11 11:53:09;;;;;;;;;;;;;;;12.04;76.61;97073.84;5011992;28;19982;-81
2021/03/11 11:55:35;;;;;;;;;;;;;;;11.69;76.58;97070.16;5047856;28;19947;-79
2021/03/11 11:58:00;;;;;;;;;;;;;;;11.70;76.36;97074.38;5049167;28;20463;-79
2021/03/11 12:00:26;;;;;;;;;;;;;;;11.50;75.59;97082.63;5012701;28;20386;-79
2021/03/11 12:02:51;;;;;;;;;;;;;;;11.77;73.11;97066.22;5025811;28;19960;-81
2021/03/11 12:05:17;;;;;;;;;;;;;;;11.65;74.55;97075.59;5021920;28;20028;-80
2021/03/11 12:07:42;;;;;;;;;;;;;;;11.76;74.90;97080.06;5036795;28;20075;-78
2021/03/11 12:10:09;;;;;;;;;;;;;;;11.87;74.08;97080.16;5020341;28;19921;-79
2021/03/11 12:12:34;;;;;;;;;;;;;;;11.80;74.49;97060.88;5044745;28;20106;-80
2021/03/11 12:14:59;;;;;;;;;;;;;;;11.89;72.69;97068.00;5022542;28;20015;-79
2021/03/11 12:17:25;;;;;;;;;;;;;;;11.83;72.38;97076.13;5033421;28;20279;-81
2021/03/11 12:19:50;;;;;;;;;;;;;;;12.07;71.66;97071.09;5015048;28;20271;-80
2021/03/11 12:22:16;;;;;;;;;;;;;;;12.25;70.10;97066.41;5010017;28;20322;-81
2021/03/11 12:24:44;;;;;;;;;;;;;;;11.83;67.82;97058.06;5004236;28;20011;-80
2021/03/11 12:27:09;;;;;;;;;;;;;;;11.92;69.40;97072.94;5013077;28;19916;-81
2021/03/11 12:29:35;;;;;;;;;;;;;;;11.71;68.04;97076.03;4999102;28;20288;-81
2021/03/11 12:32:00;;;;;;;;;;;;;;;11.82;68.63;97066.75;5005514;28;19942;-80
2021/03/11 12:34:26;;;;;;;;;;;;;;;12.27;65.89;97073.09;5010487;28;19925;-79
2021/03/11 12:36:51;;;;;;;;;;;;;;;12.24;64.38;97082.81;5008875;28;19982;-80
2021/03/11 12:39:17;;;;;;;;;;;;;;;12.58;63.03;97057.22;5002465;28;20003;-79
2021/03/11 12:41:43;;;;;;;;;;;;;;;12.18;62.30;97057.41;5002664;28;20003;-79
2021/03/11 12:44:08;;;;;;;;;;;;;;;11.97;66.15;97065.72;5010831;28;19926;-81
2021/03/11 12:46:33;;;;;;;;;;;;;;;11.88;63.93;97040.56;5026244;28;19928;-79
2021/03/11 12:48:59;;;;;;;;;;;;;;;12.23;64.45;97065.69;5008476;28;19952;-79
2021/03/11 12:51:24;;;;;;;;;;;;;;;12.03;65.78;97060.13;4992505;28;19978;-80
2021/03/11 12:53:50;;;;;;;;;;;;;;;12.24;65.01;97075.06;5011206;28;20008;-81